Cook Station, MO (65449)

8:53 PM CDT on July 10, 2014 (GMT -0500)
Rural Crawford County (KMOMARYL1) Elev 1060 ft | 37.92 °N, 91.44 °W | Change Station

Current weather conditions updated 15 seconds ago

Clear
Clear
68.5 °F
Feels Like 68.5 °F
N
0.0
Wind Variable Wind from NNE
Gusts 0.0 mph

Tomorrow is forecast to be nearly the same temperature as today.

Today
High -- | Low -- °F
--% Chance of Precip.
Yesterday
High -- | Low -- °F
Precip. -- in
5:52 AM 8:29 PM
Waxing Gibbous, 97% visible
Pressure 30.08 in
Visibility 10.0 miles
Clouds Clear
Dew Point 63 °F
Humidity 83%
Rainfall 0.00 in
Snow Depth Not available.
UV 0.0 out of 12
Pollen 3.50 out of 12
Air Quality Not available.
Flu Activity Sporadic
METAR KVIH 110053Z AUTO 10004KT 10SM CLR 24/17 A3008 RMK AO2 SLPNO T02390167

More Conditions Fewer Conditions

Pressure 30.08 in
Visibility 10.0 miles
Clouds Clear
Dew Point 63 °F
Humidity 83%
Rainfall 0.00 in
Snow Depth Not available.
UV 0.0 out of 12
Pollen 3.50 out of 12
Air Quality Not available.
Flu Activity Sporadic
METAR KVIH 110053Z AUTO 10004KT 10SM CLR 24/17 A3008 RMK AO2 SLPNO T02390167

More Conditions Fewer Conditions

10-Day Weather Forecast

Almanac

Astronomy

Jul. 10, 2014 Rise Set
Actual Time 5:52 AM CDT 8:29 PM CDT
Civil Twilight 5:21 AM CDT 9:00 PM CDT
Nautical Twilight 4:43 AM CDT 9:38 PM CDT
Astronomical Twilight 4:00 AM CDT 10:21 PM CDT
Moon 6:44 PM CDT (7/10) 4:03 AM CDT (7/10)
Length of Visible Light 15h 38m
Length of Day
14h 37m
Tomorrow will be 1m 2s shorter.
Waxing Gibbous, 97% of the Moon is Illuminated
Today
Waxing Gibbous
Jul 12
Full
Jul 18
Last Quarter
Jul 26
New
Aug 3
First Quarter

Today's Extremes

State Highs State Lows

Community

WunderPhotos

Upload Photos

1,732,338 photos uploaded!

Nearby

Snow Depth

Station Depth Elevation
No new snow has been reported.

Earthquake Activity

City Distance Mag. Time & Date
Malden, Missouri 119 miles 2.8 8:41 AM CDT
2014-07-04
Minimum magnitude displayed is 2.5.

Coastal Water Temperatures

Place Temperature
No Stations Reporting

Nearby Weather Stations

Station Location Temp. Heat Index Dew Point Humidity Wind Precip. Elev Updated Type
Rural Crawford County, Steelville, MO 68.5 °F - 63 °F 83% NNE  at  0.0 mph - / hr 1060 ft 8:53 PM CDT Rapid Fire
Rosati, Missouri, St. James, MO 72.8 °F 73 °F 66 °F 78% ENE  at  2.0 mph 0.00 in / hr 1053 ft 8:40 PM CDT Normal
Rolla, Rolla, MO 72.8 °F 75 °F 63 °F 71% ESE  at  0.0 mph 0.00 in / hr 1164 ft 8:53 PM CDT Rapid Fire
College Hills, Rolla, MO 72.6 °F 73 °F 65 °F 78% South  at  0.0 mph 0.00 in / hr 1122 ft 8:53 PM CDT Normal
Rolla, Rolla, MO 74.3 °F 77 °F 50 °F 42% North  at  0.0 mph 0.00 in / hr 1043 ft 8:50 PM CDT Normal
CRN WHITE RIVER TRACE SALEM 10 W MO , Lenox, MO - - - 71% North  at  2 mph 0.00 in / hr 1198 ft 8:00 PM CDT MADIS

Show More Stations Show Fewer Stations